CheckWX is a tool to help pilots better visualize weather data.  It is not intended as a substitute for an official pre-flight weather briefing.

12:26:09 UTC

KAQP METAR
Appleton Municipal Airport
Appleton, Minnesota, USA
Current

15 mins ago

KAQP 181211Z AUTO 32004KT 10SM CLR M19/M23 A3040 RMK AO2
Observed
Feb-18 @ 12:11 UTC
Wind
  • 320° at 4 KTS
Visibility
10 SM
Flight Rules
VFR
Cloud Levels
  • Clear skies
Temperature
-19°C / -2°F
Dewpoint
-23°C / -9°F
Humidity
71%
Altimeter
30.4" Hg
Pressure
1029.41 hPa
Previous

29 mins ago

KAQP 181157Z AUTO 32008KT 10SM CLR M19/M23 A3039 RMK AO2
Observed
Feb-18 @ 11:57 UTC
Wind
  • 320° at 8 KTS
Visibility
10 SM
Flight Rules
VFR
Cloud Levels
  • Clear skies
Temperature
-19°C / -2°F
Dewpoint
-23°C / -9°F
Humidity
71%
Altimeter
30.39" Hg
Pressure
1029.11 hPa
Previous

55 mins ago

KAQP 181131Z AUTO 31007KT 10SM CLR M19/M22 A3038 RMK AO2
Observed
Feb-18 @ 11:31 UTC
Wind
  • 310° at 7 KTS
Visibility
10 SM
Flight Rules
VFR
Cloud Levels
  • Clear skies
Temperature
-19°C / -2°F
Dewpoint
-22°C / -8°F
Humidity
77%
Altimeter
30.38" Hg
Pressure
1028.81 hPa